Wallops Island, Virginia
Current Conditions -  °F | °C
As of 2:54 PM on Saturday 25 Oct 2014 (Local Time) from KWAL Reporting Station
Clear Clear  
Wind Chill: 21°   Ceiling: Unl
Heat Index: 21°   Visibility: 10mi
Dew Point:   Wind: 8mph
Humidity: 47%   Direction: 270°W
Pressure: 29.84"   Gusts: NA
Location:  37.94°N, 75.46°W
Report Text: KWAL 251854Z AUTO 27007KT 10SM CLR 21/09 A2984 RMK AO2 SLP101 T02060089
Loading
Personal Weather Stations






























Interactive Weather Map
Tropical Storm Tracking
New forecast layout! Learn more

10-Day Weather Forecast

Advertisements
Track Severe Weather on mobile